Etusivu
METAR-TAF:

METAR-TAF

Lentoasemat :

Kemi, Suomi

Kemi-Tornion lentoasema

Leveyspiiri: 65-47N, Pituuspiiri: 024-35E, korkeus merenpinnasta: 15 m

Tämänhetkinen sää

Tämä raportti tehtiin 36 minuuttia sitten, kello 04.20 UTC
Tuuli 8 kn idästä, vaihdellen koillisen ja kaakon välillä
Lämpötila 6°C
Kosteus 81%
Ilmanpaine 1030 hPa
Näkyvyys 10 km tai enemmän
Hajonneita pilviä 1800 ft:n korkeudessa
Pilvistä 7300 ft:n korkeudessa

METAR: EFKE 210420Z AUTO 09008KT 050V130 9999 BKN018 OVC073 06/03 Q1030

Aika: 07:56 (04:56 UTC)

Sääennuste

Tämä raportti tehtiin 8 tuntia ja 20 minuuttia sitten, kello 20.36 UTC
Ennuste voimassa 20. päivästä klo 21 UTC - 20. päivään klo 24 UTC
Tuuli 8 kn idästä/koillisesta
Näkyvyys 10 km tai enemmän
Muutamia pilviä 3000 ft:n korkeudessa
Pilvistä 4500 ft:n korkeudessa

TAF: EFKE 202036Z 2021/2024 07008KT 9999 FEW030 OVC045

Säähavainnot ja -ennusteet yli 4000 lentoasemalta (METAR- ja TAF-raportit).

Käytössä olevat sääasemat on merkitty karttaan keltaisilla ja punaisilla pisteillä.

Aseta hiiri pisteen päälle nähdäksesi sääaseman nimen.

Klikkaa sitten nähdäksesi säähavainnot ja -ennusteet.

Kartan vaihtaminen: klikkaa mustalla rastilla varustettuja vihreitä pisteitä, niin voit zoomata sisään; viivalla varustettua vihreää pistettä, niin voit zoomata ulos tai vihreitä nuolia, niin pääset viereisille kartoille.


METAR-TAF: